createdAt,value
2022-10-22T00:00:00.751Z,96.20
2022-10-22T00:02:27.975Z,96.14
2022-10-22T00:04:56.974Z,96.33
2022-10-22T00:07:24.351Z,96.18
2022-10-22T00:09:50.811Z,96.22
2022-10-22T00:12:17.412Z,96.26
2022-10-22T00:14:43.844Z,96.19
2022-10-22T00:17:11.556Z,96.41
2022-10-22T00:19:38.930Z,96.04
2022-10-22T00:22:05.801Z,96.17
2022-10-22T00:24:33.374Z,96.39
2022-10-22T00:27:00.319Z,96.41
2022-10-22T00:29:26.695Z,96.36
2022-10-22T00:31:53.317Z,96.17
2022-10-22T00:34:22.292Z,96.67
2022-10-22T00:36:50.355Z,96.22
2022-10-22T00:39:19.199Z,96.12
2022-10-22T00:41:48.453Z,96.02
2022-10-22T00:44:52.628Z,95.88
2022-10-22T00:47:20.718Z,96.91
2022-10-22T00:49:48.178Z,96.48
2022-10-22T00:52:15.008Z,96.24
2022-10-22T00:54:42.479Z,96.72
2022-10-22T00:57:09.725Z,96.69
2022-10-22T00:59:36.758Z,97.09
2022-10-22T01:02:04.055Z,96.83
2022-10-22T01:04:30.638Z,97.18
2022-10-22T01:06:57.070Z,96.70
2022-10-22T01:09:38.319Z,96.92
2022-10-22T01:12:13.806Z,96.57
2022-10-22T01:14:58.243Z,97.17
2022-10-22T01:17:50.691Z,96.79
2022-10-22T01:20:56.008Z,96.88
2022-10-22T01:24:04.811Z,96.79
2022-10-22T01:26:34.013Z,96.81
2022-10-22T01:29:05.201Z,97.40
2022-10-22T01:31:38.722Z,97.03
2022-10-22T01:34:08.367Z,97.28
2022-10-22T01:36:37.357Z,97.52
2022-10-22T01:39:05.653Z,97.27
2022-10-22T01:41:32.042Z,97.49
2022-10-22T01:43:58.703Z,97.61
2022-10-22T01:46:28.198Z,97.58
2022-10-22T01:49:39.299Z,97.53
2022-10-22T01:52:27.737Z,97.61
2022-10-22T01:55:26.457Z,97.50
2022-10-22T01:58:08.077Z,97.21
2022-10-22T02:00:39.066Z,97.33
2022-10-22T02:03:17.447Z,97.25
2022-10-22T02:05:52.221Z,97.54
2022-10-22T02:08:24.275Z,97.57
2022-10-22T02:10:51.478Z,97.64
2022-10-22T02:13:24.849Z,97.67
2022-10-22T02:15:52.822Z,97.28
2022-10-22T02:18:25.895Z,97.50
2022-10-22T02:20:53.255Z,97.74
2022-10-22T02:23:21.337Z,98.01
2022-10-22T02:25:53.715Z,97.46
2022-10-22T02:28:29.123Z,97.59
2022-10-22T02:31:03.655Z,97.00
2022-10-22T02:33:38.872Z,97.33
2022-10-22T02:36:07.295Z,97.56
2022-10-22T02:38:34.604Z,97.46
2022-10-22T02:41:01.389Z,97.52
2022-10-22T02:43:29.445Z,97.41
2022-10-22T02:45:55.885Z,97.19
2022-10-22T02:48:22.471Z,97.46
2022-10-22T02:50:48.929Z,97.88
2022-10-22T02:53:15.263Z,98.21
2022-10-22T02:55:41.639Z,98.17
2022-10-22T02:58:07.983Z,97.77
2022-10-22T03:00:34.375Z,98.23
2022-10-22T03:03:00.843Z,98.03
2022-10-22T03:05:27.170Z,97.78
2022-10-22T03:07:53.487Z,97.70
2022-10-22T03:10:19.833Z,98.13
2022-10-22T03:12:46.242Z,98.29
2022-10-22T03:15:12.990Z,97.78
2022-10-22T03:17:39.550Z,98.13
2022-10-22T03:20:06.612Z,97.82
2022-10-22T03:22:35.227Z,98.01
2022-10-22T03:25:07.953Z,98.32
2022-10-22T03:27:36.850Z,98.40
2022-10-22T03:30:04.254Z,98.30
2022-10-22T03:32:30.722Z,98.00
2022-10-22T03:34:57.173Z,97.99
2022-10-22T03:37:25.079Z,98.28
2022-10-22T03:39:52.810Z,98.47
2022-10-22T03:42:19.652Z,98.46
2022-10-22T03:44:46.201Z,97.97
2022-10-22T03:47:12.670Z,98.63
2022-10-22T03:49:39.049Z,98.52
2022-10-22T03:52:10.212Z,98.53
2022-10-22T03:57:09.724Z,98.47
2022-10-22T03:59:37.592Z,98.62
2022-10-22T04:02:04.535Z,98.40
2022-10-22T04:04:31.140Z,98.17
2022-10-22T04:06:57.447Z,98.10
2022-10-22T04:09:23.802Z,98.31
2022-10-22T04:11:50.168Z,98.49
2022-10-22T04:14:16.555Z,98.32
2022-10-22T04:16:43.025Z,98.12
2022-10-22T04:19:09.369Z,98.68
2022-10-22T04:21:35.809Z,98.32
2022-10-22T04:24:02.407Z,98.09
2022-10-22T04:26:28.890Z,98.59
2022-10-22T04:28:55.273Z,98.19
2022-10-22T04:31:25.169Z,98.79
2022-10-22T04:33:56.913Z,98.54
2022-10-22T04:36:24.411Z,98.30
2022-10-22T04:38:57.333Z,98.15
2022-10-22T04:41:29.772Z,98.94
2022-10-22T04:43:57.244Z,98.57
2022-10-22T04:46:24.791Z,98.88
2022-10-22T04:48:52.571Z,98.63
2022-10-22T04:51:20.999Z,98.89
2022-10-22T04:53:48.211Z,99.29
2022-10-22T04:56:21.644Z,98.74
2022-10-22T04:58:49.935Z,98.75
2022-10-22T05:01:23.349Z,99.19
2022-10-22T05:03:51.717Z,98.66
2022-10-22T05:06:20.376Z,99.09
2022-10-22T05:08:47.805Z,99.13
2022-10-22T05:11:20.369Z,98.87
2022-10-22T05:13:47.423Z,98.78
2022-10-22T05:16:14.366Z,98.83
2022-10-22T05:18:42.889Z,99.06
2022-10-22T05:21:11.645Z,98.72
2022-10-22T05:23:38.183Z,98.88
2022-10-22T05:26:06.642Z,98.62
2022-10-22T05:28:34.300Z,98.95
2022-10-22T05:31:01.690Z,99.07
2022-10-22T05:33:30.456Z,99.33
2022-10-22T05:35:58.266Z,98.99
2022-10-22T05:38:24.998Z,99.39
2022-10-22T05:41:13.162Z,98.94
2022-10-22T05:43:39.655Z,99.19
2022-10-22T05:46:12.155Z,98.90
2022-10-22T05:48:38.850Z,99.07
2022-10-22T05:51:10.934Z,98.85
2022-10-22T05:53:39.494Z,98.90
2022-10-22T05:56:08.844Z,98.90
2022-10-22T05:58:36.638Z,99.05
2022-10-22T06:01:18.310Z,98.96
2022-10-22T06:03:45.601Z,99.00
2022-10-22T06:06:23.145Z,99.03
2022-10-22T06:08:51.541Z,99.19
2022-10-22T06:11:19.273Z,99.43
2022-10-22T06:13:46.736Z,99.91
2022-10-22T06:16:13.539Z,99.08
2022-10-22T06:18:40.488Z,99.05
2022-10-22T06:21:09.623Z,99.14
2022-10-22T06:23:37.414Z,99.00
2022-10-22T06:26:05.255Z,99.26
2022-10-22T06:28:32.790Z,98.85
2022-10-22T06:31:00.873Z,99.38
2022-10-22T06:33:28.801Z,99.25
2022-10-22T06:35:55.241Z,99.05
2022-10-22T06:38:21.814Z,98.76
2022-10-22T06:40:48.145Z,99.36
2022-10-22T06:43:14.715Z,99.07
2022-10-22T06:45:41.198Z,98.90
2022-10-22T06:48:07.662Z,99.02
2022-10-22T06:50:35.061Z,99.05
2022-10-22T06:53:01.522Z,98.73
2022-10-22T06:55:28.224Z,99.13
2022-10-22T06:57:55.593Z,99.52
2022-10-22T07:00:22.415Z,99.16
2022-10-22T07:02:56.422Z,98.99
2022-10-22T07:05:25.513Z,99.38
2022-10-22T07:07:51.871Z,99.21
2022-10-22T07:10:18.437Z,99.22
2022-10-22T07:12:44.850Z,99.40
2022-10-22T07:15:11.542Z,98.84
2022-10-22T07:17:37.959Z,99.40
2022-10-22T07:20:04.916Z,98.99
2022-10-22T07:22:31.501Z,98.76
2022-10-22T07:24:57.880Z,99.07
2022-10-22T07:27:24.325Z,99.30
2022-10-22T07:29:50.803Z,99.16
2022-10-22T07:32:19.632Z,99.27
2022-10-22T07:34:48.000Z,99.28
2022-10-22T07:37:14.474Z,99.11
2022-10-22T07:39:40.989Z,99.57
2022-10-22T07:42:07.369Z,98.57
2022-10-22T07:44:33.834Z,99.22
2022-10-22T07:47:02.866Z,98.80
2022-10-22T07:49:29.225Z,98.85
2022-10-22T07:51:56.963Z,98.85
2022-10-22T07:54:23.891Z,98.88
2022-10-22T07:56:50.300Z,98.52
2022-10-22T07:59:16.667Z,98.76
2022-10-22T08:01:43.084Z,98.51
2022-10-22T08:04:09.839Z,98.75
2022-10-22T08:06:36.562Z,98.13
2022-10-22T08:09:03.071Z,98.22
2022-10-22T08:11:29.626Z,98.08
2022-10-22T08:13:55.953Z,98.21
2022-10-22T08:16:22.257Z,98.26
2022-10-22T08:18:48.589Z,97.83
2022-10-22T08:21:14.951Z,97.58
2022-10-22T08:23:41.337Z,97.16
2022-10-22T08:26:07.756Z,97.21
2022-10-22T08:28:36.993Z,96.57
2022-10-22T08:31:07.737Z,97.06
2022-10-22T08:33:34.798Z,96.22
2022-10-22T08:36:01.351Z,97.15
2022-10-22T08:38:27.829Z,97.22
2022-10-22T08:41:05.927Z,96.88
2022-10-22T08:44:01.892Z,96.71
2022-10-22T08:46:43.722Z,97.32
2022-10-22T08:49:19.736Z,96.88
2022-10-22T08:51:46.366Z,96.68
2022-10-22T08:54:36.743Z,96.61
2022-10-22T08:57:16.430Z,96.80
2022-10-22T08:59:51.567Z,96.30
2022-10-22T09:02:33.692Z,96.42
2022-10-22T09:05:18.001Z,96.03
2022-10-22T09:07:49.909Z,96.38
2022-10-22T09:10:19.281Z,95.88
2022-10-22T09:12:47.978Z,95.58
2022-10-22T09:15:16.544Z,95.45
2022-10-22T09:18:14.331Z,95.04
2022-10-22T09:20:49.704Z,93.50
2022-10-22T09:23:52.807Z,93.74
2022-10-22T09:26:19.395Z,93.27
2022-10-22T09:28:50.943Z,93.89
2022-10-22T09:31:18.042Z,93.79
2022-10-22T09:33:48.764Z,93.18
2022-10-22T09:36:17.996Z,92.46
2022-10-22T09:38:53.150Z,92.26
2022-10-22T09:41:23.176Z,91.84
2022-10-22T09:43:50.026Z,92.17
2022-10-22T09:46:19.353Z,92.43
2022-10-22T09:48:58.503Z,91.89
2022-10-22T09:51:35.714Z,91.99
2022-10-22T09:54:13.295Z,91.47
2022-10-22T09:56:43.234Z,90.62
2022-10-22T09:59:16.021Z,91.09
2022-10-22T10:01:42.705Z,91.13
2022-10-22T10:04:12.449Z,90.88
2022-10-22T10:06:41.815Z,90.42
2022-10-22T10:09:35.373Z,88.82
2022-10-22T10:12:29.167Z,89.56
2022-10-22T10:15:24.420Z,89.47
2022-10-22T10:18:04.333Z,87.98
2022-10-22T10:20:57.314Z,86.72
2022-10-22T10:23:54.839Z,87.53
2022-10-22T10:26:36.332Z,86.55
2022-10-22T10:29:18.011Z,85.97
2022-10-22T10:32:03.106Z,86.47
2022-10-22T10:34:44.057Z,86.13
2022-10-22T10:37:13.264Z,86.42
2022-10-22T10:39:47.097Z,86.96
2022-10-22T10:42:27.088Z,87.68
2022-10-22T10:45:13.635Z,87.20
2022-10-22T10:48:05.036Z,86.01
2022-10-22T10:50:47.809Z,86.19
2022-10-22T10:53:19.920Z,86.29
2022-10-22T10:55:56.777Z,85.69
2022-10-22T10:58:32.194Z,83.87
2022-10-22T11:01:12.594Z,83.96
2022-10-22T11:03:52.047Z,84.57
2022-10-22T11:06:23.146Z,83.61
2022-10-22T11:09:03.462Z,83.24
2022-10-22T11:11:48.665Z,82.84
2022-10-22T11:14:27.800Z,82.47
2022-10-22T11:17:04.340Z,82.55
2022-10-22T11:19:51.053Z,83.25
2022-10-22T11:22:50.542Z,83.36
2022-10-22T11:25:38.523Z,83.74
2022-10-22T11:28:29.769Z,82.58
2022-10-22T11:31:02.023Z,82.43
2022-10-22T11:33:38.020Z,82.63
2022-10-22T11:36:05.769Z,82.33
2022-10-22T11:38:35.123Z,80.91
2022-10-22T11:41:10.731Z,80.51
2022-10-22T11:43:54.982Z,79.67
2022-10-22T11:46:21.251Z,78.67
2022-10-22T11:49:16.921Z,78.64
2022-10-22T11:51:44.753Z,78.91
2022-10-22T11:54:42.807Z,76.87
2022-10-22T11:57:15.057Z,77.20
2022-10-22T11:59:47.415Z,76.64
2022-10-22T12:02:30.460Z,73.84
2022-10-22T12:05:22.673Z,73.89
2022-10-22T12:08:03.875Z,71.66
2022-10-22T12:10:48.472Z,72.18
2022-10-22T12:13:24.332Z,74.55
2022-10-22T12:15:54.584Z,75.10
2022-10-22T12:18:25.284Z,76.61
2022-10-22T12:20:53.864Z,76.42
2022-10-22T12:23:24.660Z,77.85
2022-10-22T12:25:51.007Z,77.57
2022-10-22T12:28:18.978Z,77.86
2022-10-22T12:30:45.346Z,76.64
2022-10-22T12:33:21.568Z,77.63
2022-10-22T12:35:51.384Z,78.28
2022-10-22T12:38:21.383Z,76.28
2022-10-22T12:40:49.194Z,77.05
2022-10-22T12:43:28.841Z,76.78
2022-10-22T12:45:57.660Z,76.98
2022-10-22T12:48:28.140Z,75.25
2022-10-22T12:50:57.971Z,75.04
2022-10-22T12:53:49.407Z,74.95
2022-10-22T12:56:32.323Z,73.59
2022-10-22T12:59:01.867Z,73.95
2022-10-22T13:01:35.943Z,73.96
2022-10-22T13:04:07.365Z,73.06
2022-10-22T13:06:35.773Z,71.47
2022-10-22T13:09:02.136Z,72.12
2022-10-22T13:11:41.004Z,73.29
2022-10-22T13:14:25.779Z,72.04
2022-10-22T13:17:07.693Z,72.43
2022-10-22T13:19:48.135Z,70.41
2022-10-22T13:22:35.586Z,71.85
2022-10-22T13:25:13.752Z,71.00
2022-10-22T13:27:44.116Z,69.96
2022-10-22T13:30:22.088Z,69.30
2022-10-22T13:32:56.751Z,70.30
2022-10-22T13:35:43.501Z,71.52
2022-10-22T13:38:18.396Z,69.21
2022-10-22T13:40:45.005Z,69.72
2022-10-22T13:43:12.458Z,70.72
2022-10-22T13:45:39.504Z,69.16
2022-10-22T13:48:06.418Z,70.60
2022-10-22T13:50:32.785Z,71.54
2022-10-22T13:52:59.306Z,71.99
2022-10-22T13:55:29.059Z,71.86
2022-10-22T13:58:06.747Z,73.05
2022-10-22T14:00:33.156Z,71.52
2022-10-22T14:03:00.011Z,71.32
2022-10-22T14:05:26.434Z,72.07
2022-10-22T14:07:53.051Z,71.59
2022-10-22T14:10:24.255Z,71.32
2022-10-22T14:12:53.663Z,72.80
2022-10-22T14:15:25.288Z,72.65
2022-10-22T14:17:57.511Z,73.07
2022-10-22T14:20:27.792Z,73.02
2022-10-22T14:22:54.196Z,74.19
2022-10-22T14:25:26.008Z,74.15
2022-10-22T14:27:52.595Z,74.49
2022-10-22T14:30:21.866Z,74.77
2022-10-22T14:32:48.829Z,74.15
2022-10-22T14:35:18.433Z,75.36
2022-10-22T14:37:44.877Z,74.83
2022-10-22T14:40:14.700Z,74.67
2022-10-22T14:42:43.709Z,75.29
2022-10-22T14:45:17.459Z,75.36
2022-10-22T14:47:44.259Z,75.39
2022-10-22T14:50:11.227Z,75.80
2022-10-22T14:52:37.821Z,75.96
2022-10-22T14:55:04.611Z,75.35
2022-10-22T14:57:30.925Z,76.33
2022-10-22T14:59:57.239Z,76.45
2022-10-22T15:02:23.589Z,75.71
2022-10-22T15:04:50.213Z,76.51
2022-10-22T15:07:18.991Z,76.44
2022-10-22T15:09:45.695Z,76.90
2022-10-22T15:12:11.999Z,76.98
2022-10-22T15:14:38.439Z,75.72
2022-10-22T15:17:05.039Z,75.46
2022-10-22T15:19:31.368Z,75.90
2022-10-22T15:21:57.723Z,76.61
2022-10-22T15:24:24.064Z,76.72
2022-10-22T15:26:53.950Z,76.81
2022-10-22T15:29:20.287Z,76.42
2022-10-22T15:31:50.847Z,75.97
2022-10-22T15:34:23.158Z,76.49
2022-10-22T15:36:50.281Z,76.57
2022-10-22T15:39:17.457Z,76.19
2022-10-22T15:41:43.939Z,76.04
2022-10-22T15:44:17.012Z,76.39
2022-10-22T15:46:43.676Z,75.60
2022-10-22T15:49:10.677Z,75.63
2022-10-22T15:51:37.055Z,75.78
2022-10-22T15:54:06.622Z,76.00
2022-10-22T15:56:36.390Z,76.25
2022-10-22T15:59:04.053Z,76.76
2022-10-22T16:01:32.516Z,77.41
2022-10-22T16:04:05.342Z,77.72
2022-10-22T16:06:38.191Z,78.36
2022-10-22T16:09:07.491Z,78.38
2022-10-22T16:11:35.178Z,77.67
2022-10-22T16:14:02.274Z,78.58
2022-10-22T16:16:30.369Z,77.84
2022-10-22T16:18:56.807Z,78.55
2022-10-22T16:21:23.914Z,79.13
2022-10-22T16:23:50.621Z,79.00
2022-10-22T16:26:18.765Z,78.94
2022-10-22T16:28:46.681Z,79.94
2022-10-22T16:31:15.058Z,79.86
2022-10-22T16:33:47.931Z,79.72
2022-10-22T16:36:18.924Z,79.70
2022-10-22T16:38:46.586Z,79.90
2022-10-22T16:41:15.677Z,80.91
2022-10-22T16:43:48.388Z,80.61
2022-10-22T16:46:20.107Z,80.77
2022-10-22T16:48:48.019Z,80.92
2022-10-22T16:51:16.551Z,81.28
2022-10-22T16:53:43.430Z,81.31
2022-10-22T16:56:11.285Z,81.50
2022-10-22T16:58:38.172Z,81.71
2022-10-22T17:01:09.399Z,81.50
2022-10-22T17:03:36.250Z,81.70
2022-10-22T17:06:04.075Z,82.13
2022-10-22T17:08:31.974Z,82.34
2022-10-22T17:10:58.368Z,82.72
2022-10-22T17:13:27.094Z,82.45
2022-10-22T17:16:01.306Z,82.52
2022-10-22T17:18:27.628Z,82.63
2022-10-22T17:20:56.114Z,82.93
2022-10-22T17:23:22.535Z,82.76
2022-10-22T17:25:48.954Z,83.13
2022-10-22T17:28:15.314Z,83.44
2022-10-22T17:30:41.721Z,83.45
2022-10-22T17:33:08.340Z,83.74
2022-10-22T17:35:39.412Z,83.07
2022-10-22T17:38:06.440Z,83.83
2022-10-22T17:40:35.234Z,83.87
2022-10-22T17:43:01.641Z,83.58
2022-10-22T17:45:28.096Z,84.22
2022-10-22T17:47:56.618Z,84.13
2022-10-22T17:50:23.350Z,84.68
2022-10-22T17:52:50.539Z,84.26
2022-10-22T17:55:17.000Z,83.78
2022-10-22T17:57:43.331Z,84.44
2022-10-22T18:00:10.339Z,84.55
2022-10-22T18:02:36.868Z,84.94
2022-10-22T18:05:03.330Z,84.48
2022-10-22T18:07:29.686Z,84.66
2022-10-22T18:09:56.130Z,84.42
2022-10-22T18:12:22.589Z,84.94
2022-10-22T18:14:50.158Z,85.30
2022-10-22T18:17:16.515Z,85.04
2022-10-22T18:19:42.961Z,84.88
2022-10-22T18:22:09.852Z,85.14
2022-10-22T18:24:36.855Z,85.07
2022-10-22T18:27:03.924Z,84.98
2022-10-22T18:29:30.294Z,84.84
2022-10-22T18:31:56.695Z,85.53
2022-10-22T18:34:24.027Z,85.65
2022-10-22T18:36:50.626Z,85.66
2022-10-22T18:39:17.795Z,85.63
2022-10-22T18:41:44.246Z,85.94
2022-10-22T18:44:13.712Z,85.64
2022-10-22T18:46:40.418Z,85.51
2022-10-22T18:49:07.520Z,85.62
2022-10-22T18:51:34.953Z,85.59
2022-10-22T18:54:21.663Z,85.76
2022-10-22T18:56:48.917Z,85.36
2022-10-22T18:59:21.789Z,85.85
2022-10-22T19:01:48.510Z,86.16
2022-10-22T19:04:14.979Z,85.62
2022-10-22T19:06:45.331Z,85.73
2022-10-22T19:09:13.881Z,86.34
2022-10-22T19:11:40.391Z,86.37
2022-10-22T19:14:06.778Z,86.24
2022-10-22T19:16:34.725Z,86.28
2022-10-22T19:19:03.884Z,86.07
2022-10-22T19:21:31.005Z,86.43
2022-10-22T19:23:58.782Z,86.43
2022-10-22T19:26:26.457Z,86.31
2022-10-22T19:28:57.771Z,86.05
2022-10-22T19:31:25.692Z,86.49
2022-10-22T19:33:54.478Z,87.00
2022-10-22T19:36:21.887Z,86.74
2022-10-22T19:38:49.135Z,86.39
2022-10-22T19:41:19.458Z,86.94
2022-10-22T19:43:49.044Z,87.13
2022-10-22T19:46:15.708Z,86.80
2022-10-22T19:48:42.084Z,87.28
2022-10-22T19:51:10.982Z,86.88
2022-10-22T19:53:38.572Z,86.95
2022-10-22T19:56:07.277Z,87.58
2022-10-22T19:58:34.597Z,87.48
2022-10-22T20:01:05.625Z,87.92
2022-10-22T20:03:32.949Z,87.22
2022-10-22T20:05:59.317Z,87.42
2022-10-22T20:08:25.647Z,87.41
2022-10-22T20:10:52.012Z,87.65
2022-10-22T20:13:18.438Z,87.36
2022-10-22T20:15:48.514Z,87.73
2022-10-22T20:18:15.123Z,87.70
2022-10-22T20:20:41.502Z,87.97
2022-10-22T20:23:08.625Z,88.12
2022-10-22T20:25:35.724Z,88.69
2022-10-22T20:28:02.411Z,88.51
2022-10-22T20:30:28.743Z,88.18
2022-10-22T20:32:55.271Z,88.52
2022-10-22T20:35:21.824Z,88.49
2022-10-22T20:37:48.267Z,88.55
2022-10-22T20:40:14.732Z,88.49
2022-10-22T20:42:41.345Z,88.20
2022-10-22T20:45:08.450Z,88.26
2022-10-22T20:47:50.774Z,88.27
2022-10-22T20:50:19.330Z,88.28
2022-10-22T20:52:45.649Z,88.69
2022-10-22T20:55:13.573Z,88.63
2022-10-22T20:57:41.354Z,88.53
2022-10-22T21:00:08.721Z,88.00
2022-10-22T21:02:36.059Z,88.36
2022-10-22T21:05:02.453Z,88.39
2022-10-22T21:07:28.823Z,89.06
2022-10-22T21:09:55.149Z,88.77
2022-10-22T21:12:21.535Z,88.57
2022-10-22T21:14:47.975Z,88.55
2022-10-22T21:17:14.320Z,89.41
2022-10-22T21:19:40.738Z,89.00
2022-10-22T21:22:07.154Z,89.16
2022-10-22T21:24:33.526Z,89.25
2022-10-22T21:26:59.865Z,89.43
2022-10-22T21:29:26.249Z,89.58
2022-10-22T21:31:53.517Z,90.04
2022-10-22T21:34:20.032Z,89.77
2022-10-22T21:39:13.813Z,89.77
2022-10-22T21:41:40.283Z,90.05
2022-10-22T21:44:06.718Z,89.97
2022-10-22T21:46:34.150Z,90.21
2022-10-22T21:49:02.897Z,90.11
2022-10-22T21:51:31.673Z,90.56
2022-10-22T21:53:58.415Z,90.03
2022-10-22T21:56:27.420Z,89.91
2022-10-22T21:58:54.528Z,90.46
2022-10-22T22:01:21.714Z,89.93
2022-10-22T22:03:49.821Z,89.80
2022-10-22T22:06:21.252Z,89.93
2022-10-22T22:08:49.145Z,89.83
2022-10-22T22:11:18.666Z,89.95
2022-10-22T22:13:45.335Z,90.23
2022-10-22T22:16:14.785Z,89.99
2022-10-22T22:18:41.719Z,90.16
2022-10-22T22:21:12.144Z,90.20
2022-10-22T22:23:41.839Z,90.18
2022-10-22T22:26:08.615Z,90.31
2022-10-22T22:28:35.793Z,90.18
2022-10-22T22:31:11.068Z,90.47
2022-10-22T22:33:37.466Z,90.74
2022-10-22T22:36:04.058Z,90.74
2022-10-22T22:38:30.433Z,90.54
2022-10-22T22:40:59.312Z,91.22
2022-10-22T22:43:25.869Z,91.03
2022-10-22T22:46:03.104Z,90.38
2022-10-22T22:48:29.815Z,90.69
2022-10-22T22:50:59.840Z,90.01
2022-10-22T22:53:27.904Z,90.61
2022-10-22T22:56:05.923Z,90.76
2022-10-22T22:58:32.279Z,90.34
2022-10-22T23:01:32.461Z,90.25
2022-10-22T23:04:13.023Z,90.96
2022-10-22T23:06:39.601Z,90.86
2022-10-22T23:09:08.799Z,90.64
2022-10-22T23:11:35.641Z,90.34
2022-10-22T23:14:04.767Z,91.39
2022-10-22T23:16:33.795Z,91.18
2022-10-22T23:19:01.388Z,91.14
2022-10-22T23:21:30.759Z,90.89
2022-10-22T23:24:00.784Z,90.89
2022-10-22T23:26:29.973Z,91.05
2022-10-22T23:29:11.957Z,91.22
2022-10-22T23:31:38.461Z,91.29
2022-10-22T23:34:06.661Z,91.33
2022-10-22T23:36:35.721Z,91.31
2022-10-22T23:39:11.022Z,91.52
2022-10-22T23:41:38.046Z,91.06
2022-10-22T23:44:05.403Z,91.04
2022-10-22T23:46:33.286Z,91.52
2022-10-22T23:49:00.565Z,91.21
2022-10-22T23:51:27.352Z,91.42
2022-10-22T23:53:59.657Z,91.46
2022-10-22T23:56:26.521Z,91.00
2022-10-22T23:58:54.204Z,91.67
